createdAt,value
2022-09-22T00:01:31.556Z,10.23
2022-09-22T00:04:05.948Z,10.50
2022-09-22T00:06:47.313Z,10.53
2022-09-22T00:09:18.395Z,10.20
2022-09-22T00:11:50.936Z,10.14
2022-09-22T00:14:21.260Z,10.31
2022-09-22T00:16:58.717Z,10.17
2022-09-22T00:19:34.213Z,10.29
2022-09-22T00:22:01.986Z,10.25
2022-09-22T00:24:29.485Z,10.24
2022-09-22T00:26:59.199Z,10.28
2022-09-22T00:29:30.156Z,10.13
2022-09-22T00:31:58.502Z,9.86
2022-09-22T00:34:27.698Z,9.90
2022-09-22T00:36:56.130Z,9.49
2022-09-22T00:39:23.162Z,9.24
2022-09-22T00:41:52.768Z,9.05
2022-09-22T00:44:37.528Z,8.99
2022-09-22T00:47:25.991Z,9.08
2022-09-22T00:49:59.622Z,9.28
2022-09-22T00:52:52.276Z,9.28
2022-09-22T00:55:56.558Z,9.20
2022-09-22T00:58:39.087Z,9.10
2022-09-22T01:01:09.389Z,9.19
2022-09-22T01:03:39.204Z,9.12
2022-09-22T01:06:11.994Z,9.07
2022-09-22T01:08:40.431Z,9.16
2022-09-22T01:11:08.266Z,9.03
2022-09-22T01:14:13.411Z,8.87
2022-09-22T01:17:21.265Z,8.66
2022-09-22T01:20:36.170Z,8.63
2022-09-22T01:23:41.985Z,8.51
2022-09-22T01:26:26.724Z,8.36
2022-09-22T01:29:31.620Z,8.24
2022-09-22T01:32:32.442Z,8.26
2022-09-22T01:35:18.845Z,8.33
2022-09-22T01:38:05.026Z,8.22
2022-09-22T01:40:42.120Z,8.06
2022-09-22T01:43:30.488Z,7.87
2022-09-22T01:46:00.886Z,7.84
2022-09-22T01:48:33.244Z,7.63
2022-09-22T01:51:10.202Z,7.98
2022-09-22T01:53:46.631Z,8.12
2022-09-22T01:56:18.136Z,8.04
2022-09-22T01:58:58.090Z,8.00
2022-09-22T02:01:38.062Z,8.07
2022-09-22T02:04:19.520Z,8.04
2022-09-22T02:06:55.858Z,8.03
2022-09-22T02:09:27.049Z,7.93
2022-09-22T02:11:54.026Z,7.95
2022-09-22T02:14:21.135Z,7.87
2022-09-22T02:16:48.126Z,7.83
2022-09-22T02:19:44.434Z,7.75
2022-09-22T02:22:12.710Z,7.74
2022-09-22T02:24:43.818Z,7.59
2022-09-22T02:27:36.369Z,7.60
2022-09-22T02:30:11.082Z,7.65
2022-09-22T02:32:43.043Z,7.85
2022-09-22T02:35:10.806Z,7.69
2022-09-22T02:38:03.600Z,7.42
2022-09-22T02:41:10.530Z,7.24
2022-09-22T02:44:05.191Z,7.62
2022-09-22T02:46:46.310Z,7.81
2022-09-22T02:49:18.498Z,7.75
2022-09-22T02:51:49.219Z,7.74
2022-09-22T02:54:16.825Z,7.82
2022-09-22T02:56:44.567Z,7.77
2022-09-22T02:59:11.795Z,7.67
2022-09-22T03:01:39.054Z,7.66
2022-09-22T03:04:06.257Z,7.49
2022-09-22T03:06:33.790Z,7.55
2022-09-22T03:09:00.951Z,7.66
2022-09-22T03:11:27.924Z,7.64
2022-09-22T03:13:55.013Z,7.67
2022-09-22T03:16:25.208Z,7.51
2022-09-22T03:18:52.305Z,7.62
2022-09-22T03:21:19.245Z,7.53
2022-09-22T03:23:46.225Z,7.60
2022-09-22T03:26:13.174Z,7.42
2022-09-22T03:28:40.427Z,7.53
2022-09-22T03:31:07.436Z,7.64
2022-09-22T03:33:34.402Z,7.57
2022-09-22T03:36:01.560Z,7.69
2022-09-22T03:38:28.674Z,7.82
2022-09-22T03:40:58.722Z,7.93
2022-09-22T03:43:25.999Z,7.96
2022-09-22T03:46:01.382Z,7.81
2022-09-22T03:48:31.038Z,7.92
2022-09-22T03:50:58.454Z,7.84
2022-09-22T03:53:25.797Z,7.76
2022-09-22T03:55:52.954Z,7.81
2022-09-22T03:58:21.572Z,7.91
2022-09-22T04:00:49.669Z,7.99
2022-09-22T04:03:16.693Z,8.00
2022-09-22T04:05:51.321Z,8.09
2022-09-22T04:08:18.931Z,7.85
2022-09-22T04:10:46.742Z,7.91
2022-09-22T04:13:14.734Z,7.86
2022-09-22T04:15:42.411Z,8.09
2022-09-22T04:18:09.975Z,8.21
2022-09-22T04:20:41.823Z,8.21
2022-09-22T04:23:08.806Z,8.15
2022-09-22T04:25:36.135Z,7.93
2022-09-22T04:28:05.789Z,7.84
2022-09-22T04:30:34.996Z,7.95
2022-09-22T04:33:02.128Z,8.00
2022-09-22T04:35:29.918Z,8.11
2022-09-22T04:37:58.627Z,8.13
2022-09-22T04:40:25.833Z,7.78
2022-09-22T04:42:53.074Z,7.50
2022-09-22T04:45:20.542Z,7.39
2022-09-22T04:47:53.135Z,7.22
2022-09-22T04:50:22.537Z,7.10
2022-09-22T04:52:53.978Z,7.17
2022-09-22T04:55:22.815Z,7.08
2022-09-22T04:57:55.457Z,6.83
2022-09-22T05:00:28.353Z,6.71
2022-09-22T05:02:56.512Z,6.81
2022-09-22T05:05:24.450Z,6.59
2022-09-22T05:07:54.433Z,6.47
2022-09-22T05:10:27.273Z,6.56
2022-09-22T05:12:54.475Z,6.91
2022-09-22T05:15:25.346Z,7.10
2022-09-22T05:17:55.690Z,7.37
2022-09-22T05:20:22.940Z,7.67
2022-09-22T05:22:49.972Z,7.74
2022-09-22T05:25:19.283Z,7.44
2022-09-22T05:27:54.448Z,7.18
2022-09-22T05:30:26.040Z,7.16
2022-09-22T05:32:53.482Z,7.25
2022-09-22T05:35:24.460Z,7.33
2022-09-22T05:37:53.458Z,7.39
2022-09-22T05:40:24.099Z,7.48
2022-09-22T05:42:53.702Z,7.47
2022-09-22T05:45:21.815Z,7.57
2022-09-22T05:47:48.865Z,7.64
2022-09-22T05:50:18.422Z,7.62
2022-09-22T05:52:45.469Z,7.66
2022-09-22T05:55:13.745Z,7.75
2022-09-22T05:57:40.699Z,7.90
2022-09-22T06:00:10.758Z,7.92
2022-09-22T06:02:38.573Z,8.05
2022-09-22T06:05:05.772Z,8.09
2022-09-22T06:07:32.711Z,8.39
2022-09-22T06:09:59.676Z,8.43
2022-09-22T06:12:26.652Z,8.60
2022-09-22T06:14:53.594Z,8.66
2022-09-22T06:17:20.647Z,8.66
2022-09-22T06:19:50.383Z,8.78
2022-09-22T06:22:18.296Z,8.61
2022-09-22T06:24:45.732Z,8.77
2022-09-22T06:27:13.048Z,8.74
2022-09-22T06:29:41.327Z,8.79
2022-09-22T06:32:10.146Z,9.02
2022-09-22T06:34:38.097Z,9.06
2022-09-22T06:37:08.846Z,9.15
2022-09-22T06:39:38.936Z,9.19
2022-09-22T06:42:06.484Z,9.28
2022-09-22T06:44:33.621Z,9.60
2022-09-22T06:47:08.439Z,9.68
2022-09-22T06:49:35.450Z,9.73
2022-09-22T06:52:03.109Z,10.00
2022-09-22T06:54:30.571Z,10.01
2022-09-22T06:56:57.535Z,10.22
2022-09-22T06:59:24.780Z,10.49
2022-09-22T07:01:51.865Z,10.72
2022-09-22T07:04:19.934Z,10.93
2022-09-22T07:06:46.902Z,11.01
2022-09-22T07:09:16.959Z,11.23
2022-09-22T07:11:44.277Z,11.43
2022-09-22T07:14:12.622Z,11.09
2022-09-22T07:16:40.950Z,11.46
2022-09-22T07:19:08.165Z,11.40
2022-09-22T07:21:37.819Z,11.92
2022-09-22T07:24:08.179Z,12.10
2022-09-22T07:26:39.251Z,12.31
2022-09-22T07:29:13.187Z,12.17
2022-09-22T07:31:41.837Z,12.17
2022-09-22T07:34:09.152Z,11.88
2022-09-22T07:36:37.122Z,12.26
2022-09-22T07:39:11.112Z,12.33
2022-09-22T07:41:43.120Z,12.51
2022-09-22T07:44:31.994Z,12.14
2022-09-22T07:47:00.966Z,12.13
2022-09-22T07:49:28.201Z,12.33
2022-09-22T07:51:57.885Z,12.65
2022-09-22T07:54:27.282Z,12.49
2022-09-22T07:56:58.726Z,12.49
2022-09-22T07:59:26.852Z,12.52
2022-09-22T08:01:54.195Z,12.53
2022-09-22T08:04:26.444Z,12.69
2022-09-22T08:06:55.973Z,12.63
2022-09-22T08:09:25.556Z,12.98
2022-09-22T08:11:53.124Z,13.35
2022-09-22T08:14:24.217Z,13.43
2022-09-22T08:16:53.209Z,12.93
2022-09-22T08:19:23.726Z,13.05
2022-09-22T08:21:54.545Z,13.13
2022-09-22T08:24:22.461Z,13.19
2022-09-22T08:26:52.898Z,13.41
2022-09-22T08:29:21.042Z,13.33
2022-09-22T08:31:49.462Z,13.34
2022-09-22T08:34:17.824Z,13.31
2022-09-22T08:36:46.610Z,13.72
2022-09-22T08:39:15.483Z,14.15
2022-09-22T08:42:02.237Z,13.84
2022-09-22T08:44:59.629Z,14.31
2022-09-22T08:48:13.444Z,14.37
2022-09-22T08:51:14.324Z,13.98
2022-09-22T08:53:48.624Z,14.17
2022-09-22T08:56:36.741Z,14.50
2022-09-22T08:59:13.349Z,14.35
2022-09-22T09:02:29.781Z,14.84
2022-09-22T09:06:05.567Z,14.73
2022-09-22T09:09:06.173Z,14.92
2022-09-22T09:12:40.652Z,15.07
2022-09-22T09:15:33.891Z,14.93
2022-09-22T09:18:13.439Z,15.16
2022-09-22T09:20:47.014Z,15.33
2022-09-22T09:23:23.390Z,15.03
2022-09-22T09:25:55.760Z,15.29
2022-09-22T09:28:40.094Z,15.52
2022-09-22T09:31:27.797Z,15.06
2022-09-22T09:34:14.661Z,15.10
2022-09-22T09:36:46.953Z,15.23
2022-09-22T09:39:28.056Z,15.81
2022-09-22T09:41:56.415Z,15.72
2022-09-22T09:44:38.964Z,16.41
2022-09-22T09:47:42.542Z,15.43
2022-09-22T09:50:11.514Z,15.27
2022-09-22T09:52:39.952Z,15.28
2022-09-22T09:55:27.004Z,15.70
2022-09-22T09:58:32.747Z,15.66
2022-09-22T10:01:00.867Z,16.18
2022-09-22T10:03:33.756Z,16.20
2022-09-22T10:06:10.124Z,16.44
2022-09-22T10:08:48.035Z,16.68
2022-09-22T10:11:15.414Z,15.97
2022-09-22T10:13:44.131Z,15.96
2022-09-22T10:16:30.645Z,16.41
2022-09-22T10:19:37.432Z,15.83
2022-09-22T10:22:39.710Z,15.98
2022-09-22T10:25:33.165Z,16.24
2022-09-22T10:28:18.078Z,16.86
2022-09-22T10:31:00.289Z,16.15
2022-09-22T10:33:27.472Z,16.20
2022-09-22T10:36:12.352Z,16.70
2022-09-22T10:38:43.172Z,17.70
2022-09-22T10:41:21.545Z,18.16
2022-09-22T10:44:40.134Z,17.54
2022-09-22T10:47:49.102Z,17.76
2022-09-22T10:51:07.214Z,18.15
2022-09-22T10:54:34.113Z,17.72
2022-09-22T10:57:10.107Z,17.41
2022-09-22T11:00:07.662Z,17.28
2022-09-22T11:03:44.542Z,17.85
2022-09-22T11:07:28.741Z,18.21
2022-09-22T11:10:35.318Z,17.77
2022-09-22T11:13:42.886Z,17.21
2022-09-22T11:16:39.337Z,16.40
2022-09-22T11:19:50.740Z,17.75
2022-09-22T11:23:46.269Z,17.84
2022-09-22T11:26:43.842Z,18.02
2022-09-22T11:30:11.670Z,18.15
2022-09-22T11:33:25.535Z,16.83
2022-09-22T11:36:33.365Z,18.11
2022-09-22T11:39:10.570Z,18.55
2022-09-22T11:42:51.128Z,19.83
2022-09-22T11:46:03.524Z,19.08
2022-09-22T11:49:27.345Z,18.59
2022-09-22T11:52:10.154Z,18.42
2022-09-22T11:55:46.919Z,17.90
2022-09-22T11:58:26.456Z,19.25
2022-09-22T12:01:13.378Z,18.55
2022-09-22T12:04:46.186Z,18.88
2022-09-22T12:07:31.389Z,18.63
2022-09-22T12:10:40.856Z,18.44
2022-09-22T12:13:29.738Z,18.60
2022-09-22T12:16:15.270Z,18.30
2022-09-22T12:19:16.970Z,19.09
2022-09-22T12:22:34.161Z,19.12
2022-09-22T12:25:01.435Z,18.85
2022-09-22T12:27:30.107Z,18.87
2022-09-22T12:30:13.438Z,18.95
2022-09-22T12:32:43.357Z,20.15
2022-09-22T12:35:30.980Z,19.73
2022-09-22T12:38:02.217Z,19.21
2022-09-22T12:40:41.538Z,20.59
2022-09-22T12:43:22.507Z,21.06
2022-09-22T12:45:52.784Z,21.95
2022-09-22T12:48:31.883Z,19.35
2022-09-22T12:51:26.053Z,20.77
2022-09-22T12:54:21.710Z,21.09
2022-09-22T12:57:25.064Z,21.02
2022-09-22T13:00:13.210Z,21.38
2022-09-22T13:02:45.953Z,19.56
2022-09-22T13:05:25.513Z,20.62
2022-09-22T13:07:55.307Z,20.56
2022-09-22T13:10:24.901Z,20.16
2022-09-22T13:13:06.422Z,18.94
2022-09-22T13:15:51.099Z,18.13
2022-09-22T13:18:42.332Z,17.67
2022-09-22T13:21:12.380Z,18.31
2022-09-22T13:23:55.013Z,19.58
2022-09-22T13:26:31.815Z,19.35
2022-09-22T13:29:21.641Z,19.75
2022-09-22T13:31:57.071Z,20.62
2022-09-22T13:34:37.224Z,21.76
2022-09-22T13:37:14.963Z,21.22
2022-09-22T13:39:47.530Z,20.16
2022-09-22T13:42:20.379Z,20.94
2022-09-22T13:45:03.710Z,19.60
2022-09-22T13:47:31.205Z,19.90
2022-09-22T13:50:06.958Z,19.32
2022-09-22T13:52:38.593Z,19.78
2022-09-22T13:55:37.290Z,20.70
2022-09-22T13:58:08.820Z,20.57
2022-09-22T14:01:12.698Z,20.30
2022-09-22T14:03:41.150Z,19.60
2022-09-22T14:06:32.591Z,20.15
2022-09-22T14:09:01.742Z,19.24
2022-09-22T14:11:33.309Z,19.21
2022-09-22T14:14:02.656Z,19.58
2022-09-22T14:16:56.467Z,20.18
2022-09-22T14:19:44.019Z,19.17
2022-09-22T14:22:27.488Z,19.47
2022-09-22T14:25:01.705Z,19.49
2022-09-22T14:27:53.645Z,19.29
2022-09-22T14:30:26.876Z,19.75
2022-09-22T14:32:59.221Z,19.43
2022-09-22T14:35:31.821Z,19.44
2022-09-22T14:38:16.722Z,19.51
2022-09-22T14:40:59.148Z,19.43
2022-09-22T14:43:42.042Z,19.34
2022-09-22T14:46:33.754Z,19.22
2022-09-22T14:49:41.979Z,18.94
2022-09-22T14:52:31.403Z,18.93
2022-09-22T14:55:17.047Z,19.00
2022-09-22T14:57:48.804Z,18.92
2022-09-22T15:00:37.215Z,17.90
2022-09-22T15:03:27.191Z,18.55
2022-09-22T15:06:05.163Z,18.14
2022-09-22T15:08:32.140Z,18.21
2022-09-22T15:11:01.931Z,18.06
2022-09-22T15:13:45.486Z,17.74
2022-09-22T15:16:43.501Z,17.74
2022-09-22T15:19:13.082Z,17.88
2022-09-22T15:21:47.455Z,17.73
2022-09-22T15:24:21.200Z,17.07
2022-09-22T15:26:48.322Z,17.09
2022-09-22T15:29:17.388Z,17.01
2022-09-22T15:31:44.612Z,17.06
2022-09-22T15:34:12.761Z,17.10
2022-09-22T15:36:46.516Z,17.35
2022-09-22T15:39:24.404Z,16.80
2022-09-22T15:41:53.048Z,16.59
2022-09-22T15:44:20.729Z,16.74
2022-09-22T15:46:54.308Z,16.43
2022-09-22T15:49:26.134Z,16.07
2022-09-22T15:51:56.781Z,15.95
2022-09-22T15:54:26.127Z,15.68
2022-09-22T15:56:56.306Z,15.87
2022-09-22T15:59:32.238Z,15.92
2022-09-22T16:02:00.655Z,16.02
2022-09-22T16:04:33.535Z,15.87
2022-09-22T16:07:08.372Z,15.66
2022-09-22T16:09:35.905Z,15.65
2022-09-22T16:12:03.341Z,15.61
2022-09-22T16:14:30.251Z,15.55
2022-09-22T16:16:57.225Z,15.38
2022-09-22T16:19:24.153Z,15.49
2022-09-22T16:21:56.468Z,15.35
2022-09-22T16:24:23.557Z,15.41
2022-09-22T16:26:51.676Z,15.27
2022-09-22T16:29:18.703Z,15.09
2022-09-22T16:31:45.838Z,15.14
2022-09-22T16:34:12.917Z,15.00
2022-09-22T16:36:41.534Z,15.00
2022-09-22T16:39:09.278Z,15.03
2022-09-22T16:41:36.942Z,14.74
2022-09-22T16:44:05.179Z,14.49
2022-09-22T16:46:34.355Z,14.34
2022-09-22T16:49:12.723Z,14.30
2022-09-22T16:51:48.819Z,14.30
2022-09-22T16:54:18.339Z,14.52
2022-09-22T16:56:49.359Z,14.54
2022-09-22T16:59:21.704Z,13.98
2022-09-22T17:01:50.566Z,13.81
2022-09-22T17:04:19.362Z,13.73
2022-09-22T17:06:47.381Z,13.56
2022-09-22T17:09:14.916Z,13.45
2022-09-22T17:11:45.985Z,13.21
2022-09-22T17:14:23.064Z,13.19
2022-09-22T17:16:53.434Z,13.27
2022-09-22T17:19:26.669Z,13.03
2022-09-22T17:21:56.344Z,12.93
2022-09-22T17:24:25.695Z,12.71
2022-09-22T17:26:59.093Z,12.32
2022-09-22T17:29:31.546Z,12.07
2022-09-22T17:32:08.031Z,11.59
2022-09-22T17:34:36.866Z,11.43
2022-09-22T17:37:04.665Z,11.11
2022-09-22T17:39:33.971Z,11.05
2022-09-22T17:42:01.053Z,10.95
2022-09-22T17:44:30.930Z,10.99
2022-09-22T17:47:16.718Z,11.32
2022-09-22T17:50:02.176Z,11.60
2022-09-22T17:52:29.094Z,11.45
2022-09-22T17:55:07.935Z,11.20
2022-09-22T17:57:45.122Z,11.15
2022-09-22T18:00:22.590Z,10.96
2022-09-22T18:02:52.743Z,10.91
2022-09-22T18:05:26.535Z,11.07
2022-09-22T18:07:57.779Z,10.75
2022-09-22T18:10:33.904Z,10.62
2022-09-22T18:13:02.379Z,10.46
2022-09-22T18:15:29.429Z,10.47
2022-09-22T18:17:58.243Z,10.24
2022-09-22T18:20:27.389Z,10.84
2022-09-22T18:22:56.085Z,10.82
2022-09-22T18:25:25.587Z,10.74
2022-09-22T18:27:53.476Z,10.62
2022-09-22T18:30:20.856Z,10.80
2022-09-22T18:32:50.791Z,10.60
2022-09-22T18:35:18.508Z,10.77
2022-09-22T18:37:45.531Z,10.35
2022-09-22T18:40:12.842Z,10.22
2022-09-22T18:42:41.357Z,9.98
2022-09-22T18:45:10.957Z,9.83
2022-09-22T18:47:40.789Z,9.94
2022-09-22T18:50:09.340Z,9.86
2022-09-22T18:52:37.238Z,9.64
2022-09-22T18:55:05.108Z,9.52
2022-09-22T18:57:32.057Z,9.51
2022-09-22T19:00:00.311Z,9.34
2022-09-22T19:02:27.568Z,9.32
2022-09-22T19:04:54.715Z,9.29
2022-09-22T19:07:44.148Z,9.23
2022-09-22T19:10:16.261Z,9.63
2022-09-22T19:12:43.308Z,9.53
2022-09-22T19:15:15.237Z,9.22
2022-09-22T19:17:45.346Z,9.17
2022-09-22T19:20:23.800Z,9.20
2022-09-22T19:22:52.406Z,8.99
2022-09-22T19:25:21.260Z,8.61
2022-09-22T19:27:48.465Z,8.48
2022-09-22T19:30:16.947Z,8.66
2022-09-22T19:32:46.491Z,8.83
2022-09-22T19:35:13.944Z,8.93
2022-09-22T19:37:41.310Z,8.95
2022-09-22T19:40:13.686Z,8.90
2022-09-22T19:42:40.743Z,8.90
2022-09-22T19:45:09.122Z,8.82
2022-09-22T19:47:36.513Z,8.61
2022-09-22T19:50:07.754Z,8.48
2022-09-22T19:52:38.144Z,8.43
2022-09-22T19:55:07.801Z,8.53
2022-09-22T19:57:38.259Z,8.65
2022-09-22T20:00:05.918Z,8.72
2022-09-22T20:02:33.311Z,8.69
2022-09-22T20:05:00.388Z,8.80
2022-09-22T20:07:27.690Z,8.77
2022-09-22T20:09:56.281Z,8.97
2022-09-22T20:12:23.299Z,9.02
2022-09-22T20:14:51.410Z,8.95
2022-09-22T20:17:18.493Z,8.69
2022-09-22T20:19:45.493Z,8.76
2022-09-22T20:22:25.568Z,8.79
2022-09-22T20:25:00.142Z,8.34
2022-09-22T20:27:35.044Z,8.17
2022-09-22T20:30:03.846Z,8.08
2022-09-22T20:32:32.242Z,8.07
2022-09-22T20:34:59.447Z,8.07
2022-09-22T20:37:26.596Z,7.92
2022-09-22T20:39:54.380Z,7.88
2022-09-22T20:42:21.541Z,7.89
2022-09-22T20:44:49.175Z,7.83
2022-09-22T20:47:20.015Z,7.93
2022-09-22T20:49:51.494Z,8.00
2022-09-22T20:52:20.509Z,7.94
2022-09-22T20:54:48.137Z,7.79
2022-09-22T20:57:16.039Z,7.75
2022-09-22T20:59:45.801Z,7.59
2022-09-22T21:02:14.910Z,7.53
2022-09-22T21:04:42.189Z,7.41
2022-09-22T21:07:10.141Z,7.36
2022-09-22T21:09:55.882Z,7.34
2022-09-22T21:12:28.573Z,7.37
2022-09-22T21:14:57.995Z,7.78
2022-09-22T21:17:25.418Z,8.18
2022-09-22T21:19:52.394Z,8.28
2022-09-22T21:22:19.405Z,8.40
2022-09-22T21:24:48.728Z,8.23
2022-09-22T21:27:15.873Z,8.18
2022-09-22T21:29:43.105Z,8.24
2022-09-22T21:32:10.319Z,8.30
2022-09-22T21:34:37.443Z,8.17
2022-09-22T21:37:05.592Z,8.12
2022-09-22T21:39:32.668Z,8.40
2022-09-22T21:41:59.710Z,8.04
2022-09-22T21:44:26.834Z,7.84
2022-09-22T21:46:54.161Z,7.79
2022-09-22T21:49:21.222Z,7.59
2022-09-22T21:51:48.315Z,7.43
2022-09-22T21:54:19.425Z,7.45
2022-09-22T21:56:47.061Z,7.35
2022-09-22T21:59:14.580Z,7.40
2022-09-22T22:01:43.193Z,7.51
2022-09-22T22:04:13.737Z,7.83
2022-09-22T22:06:46.239Z,7.74
2022-09-22T22:09:23.045Z,7.42
2022-09-22T22:11:58.841Z,7.46
2022-09-22T22:14:31.935Z,7.46
2022-09-22T22:16:58.900Z,7.36
2022-09-22T22:19:26.955Z,7.13
2022-09-22T22:21:54.718Z,7.13
2022-09-22T22:24:28.577Z,6.93
2022-09-22T22:27:06.216Z,6.91
2022-09-22T22:29:40.971Z,6.83
2022-09-22T22:32:10.735Z,6.72
2022-09-22T22:34:37.862Z,6.82
2022-09-22T22:37:08.750Z,6.85
2022-09-22T22:39:35.660Z,7.14
2022-09-22T22:42:02.669Z,7.09
2022-09-22T22:44:29.676Z,7.04
2022-09-22T22:46:56.730Z,6.94
2022-09-22T22:49:23.860Z,7.09
2022-09-22T22:51:52.222Z,7.50
2022-09-22T22:54:19.207Z,7.79
2022-09-22T22:56:50.325Z,7.85
2022-09-22T22:59:18.574Z,7.88
2022-09-22T23:01:45.627Z,7.73
2022-09-22T23:04:12.979Z,7.46
2022-09-22T23:06:47.307Z,7.26
2022-09-22T23:09:16.754Z,7.68
2022-09-22T23:11:46.151Z,7.98
2022-09-22T23:14:15.553Z,8.11
2022-09-22T23:16:46.111Z,7.96
2022-09-22T23:19:17.448Z,7.71
2022-09-22T23:21:45.502Z,7.41
2022-09-22T23:24:18.936Z,7.02
2022-09-22T23:26:46.918Z,6.86
2022-09-22T23:29:14.145Z,6.72
2022-09-22T23:31:41.150Z,6.71
2022-09-22T23:34:08.140Z,6.60
2022-09-22T23:36:35.175Z,6.51
2022-09-22T23:39:06.007Z,6.47
2022-09-22T23:41:35.792Z,6.59
2022-09-22T23:44:06.685Z,6.43
2022-09-22T23:46:34.621Z,6.41
2022-09-22T23:49:02.225Z,6.19
2022-09-22T23:51:29.397Z,6.00
2022-09-22T23:53:57.194Z,6.03
2022-09-22T23:56:25.171Z,5.96
2022-09-22T23:58:52.840Z,5.98
